Terminal Aerodrome Forecast
Issued by NWS

Home | Current Version | Previous Version | Graphics & Text | Print | Product List | Glossary On
Versions: 1 2 3 4 5 6 7 8 9 10 11 12 13 14 15
000
FTUS43 KTOP 271031 AAB
TAFMHK
TAF AMD
KMHK 271031Z 2711/2806 09002KT P6SM SCT250
      TEMPO 2711/2713 VRB30G45KT 2SM TSRA BR BKN035CB
     FM271400 11008KT P6SM SCT020 BKN035
     FM271600 11009KT P6SM VCTS SCT025 BKN035CB
     FM272200 36008KT P6SM BKN035
     FM280000 35008KT P6SM BKN025=

USA.gov is the U.S. government's official web portal to all federal, state and local government web resources and services.